createdAt,value
2023-07-18T00:00:40.637Z,33.17
2023-07-18T00:03:10.138Z,33.16
2023-07-18T00:05:39.790Z,33.05
2023-07-18T00:08:09.482Z,33.11
2023-07-18T00:10:38.871Z,33.10
2023-07-18T00:13:09.721Z,33.11
2023-07-18T00:15:38.700Z,33.11
2023-07-18T00:18:09.106Z,33.00
2023-07-18T00:20:38.235Z,33.05
2023-07-18T00:23:08.328Z,33.11
2023-07-18T00:25:38.197Z,33.05
2023-07-18T00:28:08.115Z,33.09
2023-07-18T00:30:37.109Z,33.13
2023-07-18T00:33:06.150Z,33.12
2023-07-18T00:35:36.464Z,33.09
2023-07-18T00:38:05.417Z,33.11
2023-07-18T00:40:35.400Z,33.06
2023-07-18T00:43:04.498Z,33.11
2023-07-18T00:45:33.342Z,33.09
2023-07-18T00:48:02.692Z,33.18
2023-07-18T00:50:31.706Z,33.15
2023-07-18T00:53:03.098Z,33.17
2023-07-18T00:55:32.399Z,33.24
2023-07-18T00:58:05.682Z,33.27
2023-07-18T01:00:34.854Z,33.26
2023-07-18T01:03:03.808Z,33.32
2023-07-18T01:05:33.501Z,33.35
2023-07-18T01:08:03.069Z,33.43
2023-07-18T01:10:34.138Z,33.50
2023-07-18T01:13:03.806Z,33.53
2023-07-18T01:15:35.761Z,33.64
2023-07-18T01:18:05.240Z,33.84
2023-07-18T01:20:35.463Z,33.59
2023-07-18T01:23:08.705Z,33.59
2023-07-18T01:25:39.496Z,33.64
2023-07-18T01:28:12.830Z,33.71
2023-07-18T01:30:44.819Z,33.66
2023-07-18T01:33:13.893Z,33.77
2023-07-18T01:35:43.180Z,33.80
2023-07-18T01:38:12.248Z,33.84
2023-07-18T01:40:41.012Z,33.96
2023-07-18T01:43:10.561Z,33.86
2023-07-18T01:45:40.366Z,34.00
2023-07-18T01:48:09.462Z,34.08
2023-07-18T01:50:38.433Z,34.17
2023-07-18T01:53:08.329Z,34.15
2023-07-18T01:55:38.016Z,34.18
2023-07-18T01:58:07.274Z,34.25
2023-07-18T02:00:40.062Z,34.21
2023-07-18T02:03:10.665Z,34.23
2023-07-18T02:05:40.331Z,34.34
2023-07-18T02:08:09.108Z,34.37
2023-07-18T02:10:38.356Z,34.46
2023-07-18T02:13:07.229Z,34.43
2023-07-18T02:15:36.538Z,34.48
2023-07-18T02:18:07.357Z,34.52
2023-07-18T02:20:36.376Z,34.63
2023-07-18T02:23:05.298Z,34.75
2023-07-18T02:25:34.988Z,34.78
2023-07-18T02:28:03.898Z,34.75
2023-07-18T02:30:33.112Z,34.72
2023-07-18T02:33:02.382Z,34.82
2023-07-18T02:35:32.476Z,34.86
2023-07-18T02:38:01.605Z,34.79
2023-07-18T02:40:30.561Z,34.85
2023-07-18T02:42:59.656Z,35.07
2023-07-18T02:45:28.461Z,35.16
2023-07-18T02:47:57.712Z,35.19
2023-07-18T02:50:26.711Z,35.17
2023-07-18T02:52:59.326Z,35.26
2023-07-18T02:55:29.739Z,35.27
2023-07-18T02:57:59.289Z,35.39
2023-07-18T03:00:28.248Z,35.50
2023-07-18T03:02:57.619Z,35.61
2023-07-18T03:05:26.885Z,35.67
2023-07-18T03:07:56.888Z,35.63
2023-07-18T03:10:26.772Z,35.65
2023-07-18T03:12:55.881Z,35.74
2023-07-18T03:15:24.788Z,35.86
2023-07-18T03:17:53.823Z,36.07
2023-07-18T03:20:26.237Z,36.17
2023-07-18T03:22:55.637Z,36.14
2023-07-18T03:25:24.467Z,36.06
2023-07-18T03:27:54.694Z,36.15
2023-07-18T03:30:23.693Z,35.99
2023-07-18T03:32:53.556Z,36.26
2023-07-18T03:35:22.550Z,36.41
2023-07-18T03:37:52.332Z,36.29
2023-07-18T03:40:23.648Z,36.42
2023-07-18T03:42:52.658Z,36.61
2023-07-18T03:45:21.450Z,36.69
2023-07-18T03:47:50.562Z,36.72
2023-07-18T03:50:20.213Z,36.59
2023-07-18T03:52:50.977Z,36.61
2023-07-18T03:55:20.329Z,36.88
2023-07-18T03:57:49.145Z,36.90
2023-07-18T04:00:20.237Z,37.09
2023-07-18T04:02:51.173Z,37.06
2023-07-18T04:05:21.038Z,37.01
2023-07-18T04:07:49.967Z,37.31
2023-07-18T04:10:19.104Z,37.43
2023-07-18T04:12:48.394Z,37.66
2023-07-18T04:15:17.977Z,37.56
2023-07-18T04:17:46.883Z,37.58
2023-07-18T04:20:16.838Z,37.47
2023-07-18T04:22:45.912Z,37.66
2023-07-18T04:25:18.256Z,37.85
2023-07-18T04:27:53.575Z,37.96
2023-07-18T04:30:26.215Z,37.67
2023-07-18T04:32:56.638Z,37.42
2023-07-18T04:35:26.579Z,37.46
2023-07-18T04:37:58.911Z,37.67
2023-07-18T04:40:28.853Z,37.73
2023-07-18T04:42:58.147Z,37.71
2023-07-18T04:45:27.216Z,37.58
2023-07-18T04:47:58.618Z,38.09
2023-07-18T04:50:30.139Z,38.33
2023-07-18T04:53:02.915Z,38.32
2023-07-18T04:55:33.359Z,38.48
2023-07-18T04:58:03.166Z,38.26
2023-07-18T05:00:33.598Z,38.10
2023-07-18T05:03:03.253Z,38.03
2023-07-18T05:05:32.701Z,38.10
2023-07-18T05:08:04.383Z,38.48
2023-07-18T05:10:33.577Z,38.20
2023-07-18T05:13:02.356Z,38.46
2023-07-18T05:15:31.479Z,38.69
2023-07-18T05:18:00.328Z,38.97
2023-07-18T05:20:30.855Z,38.76
2023-07-18T05:23:00.838Z,38.37
2023-07-18T05:25:30.248Z,38.27
2023-07-18T05:28:00.461Z,38.39
2023-07-18T05:30:29.515Z,38.73
2023-07-18T05:32:58.343Z,38.69
2023-07-18T05:35:27.433Z,38.84
2023-07-18T05:37:56.817Z,38.80
2023-07-18T05:40:26.027Z,38.74
2023-07-18T05:42:55.206Z,38.20
2023-07-18T05:45:24.365Z,38.17
2023-07-18T05:47:53.396Z,38.46
2023-07-18T05:50:25.476Z,38.64
2023-07-18T05:52:54.387Z,38.48
2023-07-18T05:55:23.266Z,38.26
2023-07-18T05:57:52.780Z,38.43
2023-07-18T06:00:23.043Z,38.74
2023-07-18T06:02:53.326Z,38.81
2023-07-18T06:05:23.454Z,38.65
2023-07-18T06:07:53.536Z,38.72
2023-07-18T06:10:23.370Z,39.20
2023-07-18T06:12:52.174Z,39.45
2023-07-18T06:15:21.853Z,39.56
2023-07-18T06:17:51.604Z,39.32
2023-07-18T06:20:22.062Z,39.54
2023-07-18T06:22:51.767Z,39.64
2023-07-18T06:25:20.817Z,40.16
2023-07-18T06:27:50.282Z,40.15
2023-07-18T06:30:22.305Z,40.39
2023-07-18T06:32:51.966Z,40.35
2023-07-18T06:35:24.060Z,40.47
2023-07-18T06:37:54.019Z,40.55
2023-07-18T06:40:23.692Z,40.49
2023-07-18T06:42:52.815Z,40.12
2023-07-18T06:45:21.885Z,39.93
2023-07-18T06:47:52.741Z,40.20
2023-07-18T06:50:22.190Z,40.09
2023-07-18T06:52:51.021Z,39.98
2023-07-18T06:55:23.007Z,40.07
2023-07-18T06:57:52.468Z,40.20
2023-07-18T07:00:24.280Z,40.19
2023-07-18T07:02:53.875Z,40.33
2023-07-18T07:05:26.514Z,40.20
2023-07-18T07:07:57.701Z,40.40
2023-07-18T07:10:28.136Z,40.52
2023-07-18T07:12:58.665Z,40.66
2023-07-18T07:15:29.802Z,40.71
2023-07-18T07:18:08.841Z,41.00
2023-07-18T07:20:41.371Z,41.00
2023-07-18T07:23:12.592Z,41.00
2023-07-18T07:25:47.177Z,41.00
2023-07-18T07:28:22.940Z,41.00
2023-07-18T07:31:04.544Z,41.00
2023-07-18T07:33:37.375Z,41.00
2023-07-18T07:36:07.698Z,41.00
2023-07-18T07:38:40.174Z,41.00
2023-07-18T07:41:12.419Z,41.00
2023-07-18T07:43:44.515Z,41.00
2023-07-18T07:46:18.081Z,41.00
2023-07-18T07:48:51.890Z,41.00
2023-07-18T07:51:25.331Z,41.00
2023-07-18T07:53:59.933Z,41.00
2023-07-18T07:56:30.656Z,41.00
2023-07-18T07:59:11.227Z,41.00
2023-07-18T08:01:44.175Z,41.00
2023-07-18T08:04:16.744Z,41.00
2023-07-18T08:06:49.291Z,41.00
2023-07-18T08:09:20.421Z,41.00
2023-07-18T08:11:52.681Z,41.00
2023-07-18T08:14:25.162Z,41.00
2023-07-18T08:16:57.220Z,41.00
2023-07-18T08:19:26.998Z,41.00
2023-07-18T08:22:02.121Z,41.00
2023-07-18T08:24:33.931Z,41.00
2023-07-18T08:27:04.888Z,41.00
2023-07-18T08:29:38.545Z,41.00
2023-07-18T08:32:09.415Z,41.00
2023-07-18T08:34:41.936Z,41.00
2023-07-18T08:37:13.921Z,41.00
2023-07-18T08:39:45.665Z,41.00
2023-07-18T08:42:18.110Z,41.00
2023-07-18T08:44:53.797Z,41.00
2023-07-18T08:47:27.496Z,41.00
2023-07-18T08:49:58.311Z,41.00
2023-07-18T08:52:29.138Z,41.00
2023-07-18T08:55:00.425Z,41.00
2023-07-18T08:57:33.751Z,41.00
2023-07-18T09:00:11.513Z,41.00
2023-07-18T09:02:44.410Z,41.00
2023-07-18T09:05:41.585Z,41.00
2023-07-18T09:08:13.750Z,41.00
2023-07-18T09:10:44.504Z,41.00
2023-07-18T09:13:14.666Z,41.00
2023-07-18T09:15:45.414Z,41.00
2023-07-18T09:18:18.652Z,41.00
2023-07-18T09:20:49.508Z,41.00
2023-07-18T09:23:21.550Z,41.00
2023-07-18T09:25:52.818Z,41.00
2023-07-18T09:28:23.191Z,41.00
2023-07-18T09:30:54.379Z,41.00
2023-07-18T09:33:28.482Z,41.00
2023-07-18T09:36:01.595Z,41.00
2023-07-18T09:38:31.810Z,41.00
2023-07-18T09:41:14.017Z,41.00
2023-07-18T09:43:48.961Z,41.00
2023-07-18T09:46:21.213Z,41.00
2023-07-18T09:48:53.527Z,41.00
2023-07-18T09:51:33.968Z,41.00
2023-07-18T09:54:09.505Z,41.00
2023-07-18T09:56:42.558Z,41.00
2023-07-18T09:59:19.357Z,41.00
2023-07-18T10:01:54.501Z,41.00
2023-07-18T10:04:26.813Z,41.00
2023-07-18T10:06:58.222Z,41.00
2023-07-18T10:09:31.475Z,41.00
2023-07-18T10:12:03.864Z,41.00
2023-07-18T10:15:03.250Z,41.00
2023-07-18T10:17:43.638Z,41.00
2023-07-18T10:20:47.477Z,41.00
2023-07-18T10:23:21.664Z,41.00
2023-07-18T10:25:59.157Z,41.00
2023-07-18T10:28:45.558Z,41.00
2023-07-18T10:31:38.282Z,41.00
2023-07-18T10:34:14.988Z,41.00
2023-07-18T10:37:04.189Z,41.00
2023-07-18T10:40:02.779Z,41.00
2023-07-18T10:42:36.030Z,41.00
2023-07-18T10:45:09.946Z,41.00
2023-07-18T10:47:41.619Z,41.00
2023-07-18T10:50:12.442Z,41.00
2023-07-18T10:52:45.593Z,41.00
2023-07-18T10:55:17.967Z,41.00
2023-07-18T10:57:49.252Z,41.00
2023-07-18T11:00:22.152Z,41.00
2023-07-18T11:02:59.876Z,41.00
2023-07-18T11:05:32.283Z,41.00
2023-07-18T11:08:03.817Z,41.00
2023-07-18T11:10:39.807Z,41.00
2023-07-18T11:13:10.550Z,41.00
2023-07-18T11:15:41.850Z,41.00
2023-07-18T11:18:13.651Z,41.00
2023-07-18T11:20:48.911Z,41.00
2023-07-18T11:23:24.266Z,41.00
2023-07-18T11:26:21.101Z,41.00
2023-07-18T11:28:58.315Z,41.00
2023-07-18T11:31:48.633Z,41.00
2023-07-18T11:34:26.946Z,41.00
2023-07-18T11:36:59.602Z,41.00
2023-07-18T11:39:36.033Z,41.00
2023-07-18T11:42:11.854Z,41.00
2023-07-18T11:44:47.519Z,41.00
2023-07-18T11:47:19.693Z,41.00
2023-07-18T11:49:50.097Z,41.00
2023-07-18T11:52:23.022Z,41.00
2023-07-18T11:54:54.832Z,41.00
2023-07-18T11:57:25.646Z,41.00
2023-07-18T11:59:57.497Z,41.00
2023-07-18T12:02:30.351Z,41.00
2023-07-18T12:05:01.877Z,41.00
2023-07-18T12:07:33.738Z,41.00
2023-07-18T12:10:09.939Z,41.00
2023-07-18T12:12:42.446Z,41.00
2023-07-18T12:15:15.405Z,41.00
2023-07-18T12:17:47.024Z,41.00
2023-07-18T12:20:18.157Z,41.00
2023-07-18T12:22:48.332Z,41.00
2023-07-18T12:25:18.877Z,41.00
2023-07-18T12:27:49.314Z,41.00
2023-07-18T12:30:19.679Z,41.00
2023-07-18T12:32:49.939Z,41.00
2023-07-18T12:35:20.876Z,41.00
2023-07-18T12:37:51.483Z,41.00
2023-07-18T12:40:22.317Z,41.00
2023-07-18T12:42:55.236Z,41.00
2023-07-18T12:45:27.340Z,41.00
2023-07-18T12:47:57.544Z,41.00
2023-07-18T12:50:28.836Z,41.00
2023-07-18T12:53:01.054Z,41.00
2023-07-18T12:55:30.891Z,41.00
2023-07-18T12:58:00.862Z,41.00
2023-07-18T13:00:30.436Z,41.00
2023-07-18T13:03:00.757Z,41.00
2023-07-18T13:05:30.059Z,41.00
2023-07-18T13:07:59.001Z,41.00
2023-07-18T13:10:28.111Z,41.00
2023-07-18T13:12:57.120Z,41.00
2023-07-18T13:15:26.288Z,41.00
2023-07-18T13:17:55.378Z,41.00
2023-07-18T13:20:24.863Z,41.00
2023-07-18T13:22:53.845Z,41.00
2023-07-18T13:25:24.176Z,41.00
2023-07-18T13:27:52.908Z,41.00
2023-07-18T13:30:24.434Z,41.00
2023-07-18T13:32:53.567Z,41.00
2023-07-18T13:35:22.403Z,41.00
2023-07-18T13:37:51.620Z,41.00
2023-07-18T13:40:20.475Z,41.00
2023-07-18T13:42:51.175Z,41.00
2023-07-18T13:45:20.198Z,41.00
2023-07-18T13:47:49.076Z,41.00
2023-07-18T13:52:59.659Z,41.00
2023-07-18T13:55:29.171Z,41.00
2023-07-18T13:57:58.125Z,41.00
2023-07-18T14:00:27.094Z,41.00
2023-07-18T14:02:56.152Z,41.00
2023-07-18T14:05:26.344Z,41.00
2023-07-18T14:07:58.039Z,41.00
2023-07-18T14:10:27.184Z,41.00
2023-07-18T14:12:58.238Z,41.00
2023-07-18T14:15:30.617Z,41.00
2023-07-18T14:18:03.004Z,41.00
2023-07-18T14:20:36.824Z,41.00
2023-07-18T14:23:10.200Z,41.00
2023-07-18T14:25:42.435Z,41.00
2023-07-18T14:28:15.688Z,41.00
2023-07-18T14:30:48.099Z,41.00
2023-07-18T14:33:21.439Z,41.00
2023-07-18T14:35:54.557Z,41.00
2023-07-18T14:38:27.920Z,41.00
2023-07-18T14:41:00.509Z,41.00
2023-07-18T14:43:37.599Z,41.00
2023-07-18T14:46:11.424Z,41.00
2023-07-18T14:48:44.068Z,41.00
2023-07-18T14:51:18.139Z,41.00
2023-07-18T14:53:51.679Z,41.00
2023-07-18T14:56:27.209Z,41.00
2023-07-18T14:59:00.167Z,41.00
2023-07-18T15:01:33.541Z,41.00
2023-07-18T15:04:06.828Z,41.00
2023-07-18T15:06:40.233Z,41.00
2023-07-18T15:09:13.573Z,41.00
2023-07-18T15:11:47.418Z,41.00
2023-07-18T15:14:21.450Z,41.00
2023-07-18T15:16:53.635Z,41.00
2023-07-18T15:19:33.774Z,41.00
2023-07-18T15:22:06.830Z,41.00
2023-07-18T15:24:40.764Z,41.00
2023-07-18T15:27:14.646Z,41.00
2023-07-18T15:29:47.813Z,41.00
2023-07-18T15:32:21.785Z,41.00
2023-07-18T15:34:55.020Z,41.00
2023-07-18T15:37:29.447Z,41.00
2023-07-18T15:40:04.557Z,41.00
2023-07-18T15:42:38.847Z,41.00
2023-07-18T15:45:13.338Z,41.00
2023-07-18T15:47:48.331Z,41.00
2023-07-18T15:50:23.745Z,41.00
2023-07-18T15:52:57.734Z,41.00
2023-07-18T15:55:30.913Z,41.00
2023-07-18T15:58:05.116Z,41.00
2023-07-18T16:00:37.924Z,41.00
2023-07-18T16:03:11.267Z,41.00
2023-07-18T16:05:43.661Z,41.00
2023-07-18T16:08:17.690Z,41.00
2023-07-18T16:10:51.678Z,41.00
2023-07-18T16:13:25.032Z,41.00
2023-07-18T16:15:59.150Z,41.00
2023-07-18T16:18:33.788Z,41.00
2023-07-18T16:21:06.691Z,41.00
2023-07-18T16:23:41.350Z,41.00
2023-07-18T16:26:13.670Z,41.00
2023-07-18T16:28:47.186Z,41.00
2023-07-18T16:31:24.436Z,41.00
2023-07-18T16:33:58.382Z,41.00
2023-07-18T16:36:31.483Z,41.00
2023-07-18T16:39:05.873Z,41.00
2023-07-18T16:41:42.296Z,41.00
2023-07-18T16:44:19.918Z,41.00
2023-07-18T16:46:53.327Z,41.00
2023-07-18T16:49:27.488Z,41.00
2023-07-18T16:52:01.430Z,41.00
2023-07-18T16:54:35.128Z,41.00
2023-07-18T16:57:08.741Z,41.00
2023-07-18T16:59:42.724Z,41.00
2023-07-18T17:02:16.494Z,41.00
2023-07-18T17:04:49.936Z,41.00
2023-07-18T17:07:23.041Z,41.00
2023-07-18T17:09:56.513Z,41.00
2023-07-18T17:12:30.252Z,41.00
2023-07-18T17:15:05.651Z,41.00
2023-07-18T17:17:38.947Z,41.00
2023-07-18T17:20:14.346Z,41.00
2023-07-18T17:22:46.971Z,41.00
2023-07-18T17:25:24.798Z,41.00
2023-07-18T17:27:57.748Z,41.00
2023-07-18T17:30:31.316Z,41.00
2023-07-18T17:33:05.660Z,41.00
2023-07-18T17:35:43.859Z,41.00
2023-07-18T17:38:17.041Z,41.00
2023-07-18T17:40:51.732Z,41.00
2023-07-18T17:43:24.644Z,41.00
2023-07-18T17:45:57.839Z,41.00
2023-07-18T17:48:31.405Z,41.00
2023-07-18T17:51:10.933Z,41.00
2023-07-18T17:53:43.001Z,41.00
2023-07-18T17:56:16.833Z,41.00
2023-07-18T17:58:49.976Z,41.00
2023-07-18T18:01:22.943Z,41.00
2023-07-18T18:03:57.513Z,41.00
2023-07-18T18:06:34.631Z,41.00
2023-07-18T18:09:07.968Z,41.00
2023-07-18T18:11:40.966Z,41.00
2023-07-18T18:14:13.274Z,41.00
2023-07-18T18:16:46.530Z,41.00
2023-07-18T18:19:21.703Z,41.00
2023-07-18T18:21:55.302Z,41.00
2023-07-18T18:24:28.675Z,41.00
2023-07-18T18:27:02.971Z,41.00
2023-07-18T18:29:36.136Z,41.00
2023-07-18T18:32:10.186Z,41.00
2023-07-18T18:34:56.671Z,41.00
2023-07-18T18:37:39.202Z,41.00
2023-07-18T18:40:13.601Z,41.00
2023-07-18T18:42:46.563Z,41.00
2023-07-18T18:45:21.864Z,41.00
2023-07-18T18:47:58.595Z,41.00
2023-07-18T18:50:30.973Z,41.00
2023-07-18T18:53:03.624Z,41.00
2023-07-18T18:55:36.535Z,41.00
2023-07-18T18:58:14.479Z,41.00
2023-07-18T19:00:47.999Z,41.00
2023-07-18T19:03:21.678Z,41.00
2023-07-18T19:05:55.033Z,41.00
2023-07-18T19:08:28.018Z,41.00
2023-07-18T19:11:08.038Z,41.00
2023-07-18T19:13:43.007Z,41.00
2023-07-18T19:16:28.855Z,41.00
2023-07-18T19:19:14.545Z,41.00
2023-07-18T19:21:49.062Z,41.00
2023-07-18T19:24:23.015Z,41.00
2023-07-18T19:26:57.680Z,41.00
2023-07-18T19:29:31.466Z,41.00
2023-07-18T19:32:05.187Z,41.00
2023-07-18T19:34:41.104Z,41.00
2023-07-18T19:37:18.683Z,41.00
2023-07-18T19:39:52.514Z,41.00
2023-07-18T19:42:26.413Z,41.00
2023-07-18T19:45:00.254Z,41.00
2023-07-18T19:47:34.916Z,41.00
2023-07-18T19:50:11.084Z,41.00
2023-07-18T19:52:45.625Z,41.00
2023-07-18T19:55:19.114Z,41.00
2023-07-18T19:57:52.477Z,41.00
2023-07-18T20:00:26.274Z,41.00
2023-07-18T20:03:00.774Z,41.00
2023-07-18T20:05:36.592Z,41.00
2023-07-18T20:08:10.570Z,41.00
2023-07-18T20:10:40.187Z,41.00
2023-07-18T20:13:10.142Z,41.00
2023-07-18T20:15:39.324Z,41.00
2023-07-18T20:18:08.755Z,41.00
2023-07-18T20:20:38.274Z,41.00
2023-07-18T20:23:07.477Z,41.00
2023-07-18T20:25:36.794Z,41.00
2023-07-18T20:28:06.580Z,41.00
2023-07-18T20:30:37.100Z,41.00
2023-07-18T20:33:06.374Z,41.00
2023-07-18T20:35:35.255Z,41.00
2023-07-18T20:38:05.010Z,41.00
2023-07-18T20:40:33.736Z,41.00
2023-07-18T20:43:02.825Z,41.00
2023-07-18T20:45:31.846Z,41.00
2023-07-18T20:48:02.149Z,41.00
2023-07-18T20:50:34.813Z,41.00
2023-07-18T20:53:03.854Z,41.00
2023-07-18T20:55:33.247Z,41.00
2023-07-18T20:58:02.976Z,41.00
2023-07-18T21:00:31.747Z,41.00
2023-07-18T21:03:03.868Z,41.00
2023-07-18T21:05:33.185Z,41.00
2023-07-18T21:08:04.211Z,41.00
2023-07-18T21:10:34.448Z,41.00
2023-07-18T21:13:07.382Z,41.00
2023-07-18T21:15:38.292Z,41.00
2023-07-18T21:18:07.350Z,41.00
2023-07-18T21:20:36.660Z,41.00
2023-07-18T21:23:05.937Z,41.00
2023-07-18T21:25:35.543Z,41.00
2023-07-18T21:28:04.993Z,41.00
2023-07-18T21:30:34.032Z,41.00
2023-07-18T21:33:02.950Z,41.00
2023-07-18T21:35:32.436Z,41.00
2023-07-18T21:38:01.227Z,41.00
2023-07-18T21:40:30.389Z,41.00
2023-07-18T21:42:59.258Z,41.00
2023-07-18T21:45:28.458Z,41.00
2023-07-18T21:47:57.421Z,41.00
2023-07-18T21:50:26.655Z,32.82
2023-07-18T21:52:55.528Z,32.82
2023-07-18T21:55:24.814Z,32.82
2023-07-18T21:57:53.656Z,32.82
2023-07-18T22:00:22.801Z,32.82
2023-07-18T22:02:51.746Z,32.82
2023-07-18T22:05:20.989Z,32.82
2023-07-18T22:07:49.800Z,32.82
2023-07-18T22:10:18.954Z,32.82
2023-07-18T22:12:47.985Z,32.82
2023-07-18T22:15:17.598Z,32.82
2023-07-18T22:17:48.017Z,32.82
2023-07-18T22:20:16.832Z,32.76
2023-07-18T22:22:45.994Z,32.76
2023-07-18T22:25:15.048Z,32.76
2023-07-18T22:27:44.064Z,32.76
2023-07-18T22:30:13.129Z,32.76
2023-07-18T22:32:42.444Z,32.85
2023-07-18T22:35:11.172Z,32.81
2023-07-18T22:37:40.175Z,32.81
2023-07-18T22:40:09.577Z,32.81
2023-07-18T22:42:38.748Z,32.81
2023-07-18T22:45:07.943Z,32.82
2023-07-18T22:47:37.085Z,32.82
2023-07-18T22:50:09.392Z,32.82
2023-07-18T22:52:38.479Z,32.82
2023-07-18T22:55:07.722Z,32.82
2023-07-18T22:57:36.825Z,32.82
2023-07-18T23:00:07.028Z,32.87
2023-07-18T23:02:36.696Z,32.87
2023-07-18T23:05:05.796Z,32.76
2023-07-18T23:07:36.681Z,32.75
2023-07-18T23:10:05.968Z,32.85
2023-07-18T23:12:34.820Z,32.78
2023-07-18T23:15:03.847Z,32.73
2023-07-18T23:17:32.686Z,32.57
2023-07-18T23:20:01.918Z,32.72
2023-07-18T23:22:30.946Z,32.78
2023-07-18T23:24:59.980Z,32.74
2023-07-18T23:27:28.763Z,32.76
2023-07-18T23:29:57.858Z,32.69
2023-07-18T23:32:26.746Z,32.69
2023-07-18T23:34:55.799Z,32.69
2023-07-18T23:37:25.008Z,32.69
2023-07-18T23:39:58.672Z,32.52
2023-07-18T23:42:28.950Z,32.51
2023-07-18T23:44:57.848Z,32.48
2023-07-18T23:47:26.845Z,32.53
2023-07-18T23:49:55.823Z,32.50
2023-07-18T23:52:24.675Z,32.47
2023-07-18T23:54:53.910Z,32.52
2023-07-18T23:57:23.949Z,32.49
2023-07-18T23:59:53.076Z,32.49
